Smyrna, North Carolina
Current Conditions -  °F | °C
As of 12:58 PM on Sunday 21 Dec 2014 (Local Time) from KMRH Reporting Station
Overcast Overcast  
Wind Chill: 42°   Ceiling: 4600
Heat Index: 46°   Visibility: 10mi
Dew Point: 39°   Wind: 8mph
Humidity: 76%   Direction: 50°NE
Pressure: 30.24"   Gusts: NA
Location:  34.76°N, 76.53°W
Report Text: KMRH 211758Z AUTO 05007KT 10SM OVC046 08/04 A3024 RMK AO2 SLP242 60000 I1000 I6/// T00780039 10078 20050 58020 TSNO
Loading
Personal Weather Stations






























Interactive Weather Map New forecast layout! Learn more

10-Day Weather Forecast

Advertisements
Track Severe Weather on mobile